Portada
METAR-TAF:

METAR-TAF

Aeropuertos :

Aeropuerto Internacional de La Chinita

Maracaibo, Venezuela

latitud: 10-34N, longitud: 071-44W, altitud: 66 m

Observación

El informe se hizo hace 1 hora y 4 minutos, a las 20:00 UTC
Viento 4 kt del sur
Temperatura 27°C
Humedad 89%
Presión 1010 hPa
Visibilidad 10 km o más
Cielo nuboso a una altura de 1300 ft

METAR: SVMC 192000Z 18004KT 9999 BKN013 27/25 Q1010

Hora: 17:04 (21:04 UTC)

Pronóstico

El informe se hizo hace 5 horas y 4 minutos, a las 16:00 UTC
Pronóstico válido del 19 a las 18 UTC al 20 a las 18 UTC
Viento 6 kt con dirección variable
Visibilidad 10 km o más
Cielo nuboso a una altura de 1300 ft
Temporalmente
del 19 a las 18 UTC al 19 a las 22 UTC
Viento 6 kt con dirección variable
Visibilidad: 7000 m
Cielo cubierto a una altura de 1300 ft, Cumulonimbus.
tormenta, lluvia

TAF: SVMC 191600Z 1918/2018 VRB06KT 9999 BKN013 TX33/19Z TN24/08Z TEMPO 1918/1922 VRB06KT 7000 TSRA OVC013CB

Observaciones y pronósticos meteorológicos de más de 4000 aeropuertos (mensajes METAR y TAF).

Los puntos amarillos y rojos representan las estaciones disponibles.

Ponga el ratón en el punto deseado para ver el nombre de la estación.

Haga clic para ver las observaciones y los pronósticos meteorológicos.

Para cambiar el mapa : haga clic en los botones verdes con una cruz de color negro para hacer un zoom, en el botón verde con un guión para alejar o en las flechas verdes para mapas adyacentes.


METAR-TAF: